Time;durP1;ratioP1;P1;durP2;ratioP2;P2;SDS_P1;SDS_P2;PMS_P1;PMS_P2;Temp;Humidity;BMP_temperature;BMP_pressure;BME280_temperature;BME280_humidity;BME280_pressure;Samples;Min_cycle;Max_cycle;Signal;HPM_P1;HPM_P2
2021/11/05 00:01:43;;;;;;;19.35;12.48;;;;;;;11.66;100.00;100356.31;5121619;27;20467;-67
2021/11/05 00:04:10;;;;;;;20.27;12.55;;;;;;;11.63;100.00;100356.59;5126913;27;20039;-67
2021/11/05 00:06:35;;;;;;;22.88;13.70;;;;;;;11.62;100.00;100356.72;5127518;27;20019;-67
2021/11/05 00:09:01;;;;;;;20.92;12.52;;;;;;;11.58;100.00;100345.41;5131500;27;20029;-67
2021/11/05 00:11:27;;;;;;;21.90;13.68;;;;;;;11.58;100.00;100348.91;5132659;27;20061;-67
2021/11/05 00:13:52;;;;;;;19.10;13.57;;;;;;;11.55;100.00;100343.00;5134992;27;20023;-67
2021/11/05 00:16:18;;;;;;;23.85;13.65;;;;;;;11.51;100.00;100334.34;5131664;27;20019;-67
2021/11/05 00:18:43;;;;;;;19.90;13.75;;;;;;;11.51;100.00;100341.56;5130556;27;20544;-67
2021/11/05 00:21:08;;;;;;;20.65;14.00;;;;;;;11.47;100.00;100335.63;5114698;28;20028;-67
2021/11/05 00:23:34;;;;;;;24.85;14.05;;;;;;;11.45;100.00;100334.09;5114673;27;20020;-67
2021/11/05 00:25:59;;;;;;;23.98;14.98;;;;;;;11.40;100.00;100328.25;5123283;27;20031;-67
2021/11/05 00:28:25;;;;;;;23.55;15.55;;;;;;;11.36;100.00;100314.25;5130733;27;20433;-67
2021/11/05 00:30:50;;;;;;;24.85;16.17;;;;;;;11.36;100.00;100316.94;5118778;27;20042;-67
2021/11/05 00:33:16;;;;;;;24.27;15.38;;;;;;;11.29;100.00;100320.34;5117203;27;20422;-67
2021/11/05 00:35:41;;;;;;;20.00;14.77;;;;;;;11.24;100.00;100326.13;5114408;28;20050;-67
2021/11/05 00:38:07;;;;;;;18.92;13.38;;;;;;;11.24;100.00;100341.38;5126843;27;20042;-67
2021/11/05 00:40:32;;;;;;;16.00;11.70;;;;;;;11.17;100.00;100342.94;5129970;27;20035;-67
2021/11/05 00:42:58;;;;;;;17.42;12.13;;;;;;;11.15;100.00;100355.63;5131761;27;20019;-67
2021/11/05 00:45:24;;;;;;;15.70;10.32;;;;;;;11.09;100.00;100351.66;5125441;27;20095;-67
2021/11/05 00:47:49;;;;;;;13.70;10.15;;;;;;;11.08;100.00;100328.50;5123655;27;20448;-67
2021/11/05 00:50:15;;;;;;;12.43;9.00;;;;;;;11.01;100.00;100319.31;5134318;27;20536;-67
2021/11/05 00:52:41;;;;;;;12.48;8.70;;;;;;;11.02;100.00;100329.03;5134541;27;20031;-67
2021/11/05 00:55:07;;;;;;;10.13;7.45;;;;;;;10.98;100.00;100337.50;5132170;27;20023;-67
2021/11/05 00:57:34;;;;;;;12.38;8.23;;;;;;;10.93;100.00;100347.81;5121989;27;20138;-67
2021/11/05 00:59:59;;;;;;;11.02;7.80;;;;;;;10.87;100.00;100341.13;5115666;27;20023;-67
2021/11/05 01:02:25;;;;;;;11.65;7.47;;;;;;;10.84;100.00;100345.94;5118468;27;20364;-67
2021/11/05 01:04:50;;;;;;;8.68;6.93;;;;;;;10.78;100.00;100341.97;5125628;27;20039;-67
2021/11/05 01:07:16;;;;;;;11.63;7.38;;;;;;;10.77;100.00;100348.28;5132721;27;20031;-67
2021/11/05 01:09:41;;;;;;;8.32;6.38;;;;;;;10.74;100.00;100342.38;5117483;27;20023;-67
2021/11/05 01:12:07;;;;;;;9.82;6.47;;;;;;;10.69;100.00;100345.47;5128824;27;20027;-67
2021/11/05 01:14:33;;;;;;;9.70;6.15;;;;;;;10.63;100.00;100342.44;5127575;27;20360;-67
2021/11/05 01:16:59;;;;;;;7.53;6.43;;;;;;;10.56;100.00;100342.16;5133750;27;20039;-67
2021/11/05 01:19:25;;;;;;;7.00;6.28;;;;;;;10.55;100.00;100342.28;5131029;27;20029;-67
2021/11/05 01:21:51;;;;;;;8.38;6.70;;;;;;;10.45;100.00;100330.66;5126857;27;20027;-67
2021/11/05 01:24:16;;;;;;;8.05;6.43;;;;;;;10.42;100.00;100337.13;5124601;27;20031;-67
2021/11/05 01:26:42;;;;;;;7.93;5.97;;;;;;;10.38;100.00;100350.94;5128370;27;20031;-67
2021/11/05 01:29:07;;;;;;;9.23;6.82;;;;;;;10.36;100.00;100342.19;5128526;27;20031;-67
2021/11/05 01:31:33;;;;;;;9.85;5.72;;;;;;;10.27;100.00;100330.41;5121415;27;20371;-67
2021/11/05 01:33:59;;;;;;;8.35;5.95;;;;;;;10.26;100.00;100331.41;5114411;27;20038;-67
2021/11/05 01:36:25;;;;;;;12.38;5.82;;;;;;;10.26;100.00;100338.59;5113579;27;20058;-67
2021/11/05 01:38:50;;;;;;;8.82;5.90;;;;;;;10.21;100.00;100349.72;5125225;27;20031;-67
2021/11/05 01:41:16;;;;;;;8.13;5.05;;;;;;;10.21;100.00;100356.88;5132439;27;20031;-66
2021/11/05 01:43:46;;;;;;;8.15;5.78;;;;;;;10.18;100.00;100357.16;5128747;27;20023;-67
2021/11/05 01:46:11;;;;;;;9.18;5.40;;;;;;;10.13;100.00;100349.50;5145270;27;20411;-67
2021/11/05 01:48:37;;;;;;;8.95;5.55;;;;;;;10.12;100.00;100355.03;5131017;27;20054;-67
2021/11/05 01:51:03;;;;;;;7.13;5.35;;;;;;;10.10;100.00;100373.03;5133036;27;20027;-67
2021/11/05 01:53:28;;;;;;;7.93;5.65;;;;;;;10.09;100.00;100382.91;5126015;27;20037;-67
2021/11/05 01:55:54;;;;;;;8.38;5.50;;;;;;;10.08;100.00;100386.56;5132033;27;20019;-67
2021/11/05 01:58:20;;;;;;;7.55;5.97;;;;;;;10.07;100.00;100395.59;5130856;27;20080;-67
2021/11/05 02:00:47;;;;;;;8.05;5.68;;;;;;;10.07;100.00;100405.47;5133544;27;20446;-67
2021/11/05 02:03:14;;;;;;;8.60;5.88;;;;;;;10.02;100.00;100421.88;5126071;27;20019;-67
2021/11/05 02:05:40;;;;;;;9.07;6.20;;;;;;;10.02;100.00;100419.22;5139598;27;20055;-67
2021/11/05 02:08:07;;;;;;;6.95;5.78;;;;;;;9.98;100.00;100408.88;5120229;27;20503;-67
2021/11/05 02:10:33;;;;;;;9.50;6.45;;;;;;;9.97;100.00;100417.91;5131868;27;20054;-67
2021/11/05 02:12:59;;;;;;;11.52;6.32;;;;;;;9.92;100.00;100410.25;5133096;27;20027;-67
2021/11/05 02:15:25;;;;;;;9.82;6.63;;;;;;;9.91;100.00;100399.66;5123442;27;20112;-67
2021/11/05 02:17:51;;;;;;;8.68;6.78;;;;;;;9.89;100.00;100406.97;5131641;27;20031;-67
2021/11/05 02:20:26;;;;;;;7.93;6.45;;;;;;;9.88;100.00;100400.78;5131570;27;20407;-66
2021/11/05 02:22:53;;;;;;;7.10;5.95;;;;;;;9.88;100.00;100395.41;5126169;27;20098;-67
2021/11/05 02:25:19;;;;;;;6.38;5.78;;;;;;;9.85;100.00;100395.66;5126021;28;20032;-67
2021/11/05 02:27:46;;;;;;;7.10;6.05;;;;;;;9.85;100.00;100400.16;5130850;28;20027;-67
2021/11/05 02:30:12;;;;;;;8.20;5.72;;;;;;;9.82;100.00;100401.28;5132064;27;20084;-67
2021/11/05 02:32:41;;;;;;;7.63;6.07;;;;;;;9.76;100.00;100406.28;5132430;27;20103;-67
2021/11/05 02:35:06;;;;;;;7.53;6.32;;;;;;;9.73;100.00;100406.53;5126073;28;20023;-67
2021/11/05 02:37:32;;;;;;;11.75;5.80;;;;;;;9.68;100.00;100393.56;5121654;27;20036;-67
2021/11/05 02:39:58;;;;;;;8.02;5.32;;;;;;;9.66;100.00;100392.81;5112516;28;20030;-66
2021/11/05 02:42:23;;;;;;;8.80;6.25;;;;;;;9.63;100.00;100390.38;5129555;28;20027;-66
2021/11/05 02:44:49;;;;;;;6.63;5.35;;;;;;;9.58;100.00;100386.41;5118549;27;20068;-67
2021/11/05 02:47:20;;;;;;;7.95;5.20;;;;;;;9.63;100.00;100401.09;5125723;27;20038;-66
2021/11/05 02:49:47;;;;;;;7.40;5.30;;;;;;;9.56;100.00;100391.88;5126740;27;20447;-67
2021/11/05 02:52:14;;;;;;;6.88;4.65;;;;;;;9.54;100.00;100387.63;5120635;28;20386;-66
2021/11/05 02:54:41;;;;;;;8.00;4.78;;;;;;;9.52;100.00;100373.50;5112573;28;20023;-67
2021/11/05 02:57:08;;;;;;;5.30;4.00;;;;;;;9.47;100.00;100379.25;5120958;28;20031;-67
2021/11/05 02:59:34;;;;;;;7.53;4.35;;;;;;;9.43;100.00;100383.16;5126412;28;20054;-67
2021/11/05 03:01:59;;;;;;;5.22;3.67;;;;;;;9.41;100.00;100377.06;5132396;27;20114;-66
2021/11/05 03:04:25;;;;;;;5.50;3.47;;;;;;;9.33;100.00;100360.81;5133916;27;20063;-66
2021/11/05 03:06:50;;;;;;;6.22;3.22;;;;;;;9.37;99.85;100377.44;5136400;27;20027;-67
2021/11/05 03:09:17;;;;;;;4.88;3.65;;;;;;;9.41;99.50;100390.44;5117856;27;20027;-67
2021/11/05 03:11:46;;;;;;;4.55;3.40;;;;;;;9.37;98.72;100374.75;5132258;27;20052;-67
2021/11/05 03:14:12;;;;;;;6.53;3.72;;;;;;;9.33;97.51;100376.84;5135542;27;20023;-67
2021/11/05 03:16:39;;;;;;;5.57;3.42;;;;;;;9.33;96.14;100383.03;5134370;27;20023;-67
2021/11/05 03:19:05;;;;;;;3.90;2.95;;;;;;;9.27;95.96;100372.88;5131763;27;20027;-67
2021/11/05 03:21:31;;;;;;;6.75;3.38;;;;;;;9.23;94.73;100384.75;5118312;27;20035;-66
2021/11/05 03:23:57;;;;;;;5.82;3.13;;;;;;;9.24;93.93;100410.56;5129603;27;20027;-67
2021/11/05 03:26:23;;;;;;;4.57;3.10;;;;;;;9.22;93.66;100406.28;5129731;27;20023;-66
2021/11/05 03:28:49;;;;;;;5.05;3.33;;;;;;;9.16;94.14;100404.97;5130505;27;21403;-66
2021/11/05 03:31:14;;;;;;;4.70;2.80;;;;;;;9.12;93.70;100403.53;5124469;27;20055;-67
2021/11/05 03:33:40;;;;;;;4.40;3.25;;;;;;;9.09;93.34;100409.13;5123332;27;20498;-67
2021/11/05 03:36:06;;;;;;;5.10;3.20;;;;;;;9.03;93.33;100404.25;5127101;27;20155;-67
2021/11/05 03:38:31;;;;;;;6.72;3.50;;;;;;;8.96;94.15;100402.19;5118620;27;20031;-67
2021/11/05 03:40:56;;;;;;;5.50;3.58;;;;;;;8.94;95.02;100406.84;5129896;27;20250;-67
2021/11/05 03:43:22;;;;;;;5.32;3.83;;;;;;;8.88;94.92;100429.56;5134740;27;20054;-67
2021/11/05 03:45:47;;;;;;;4.18;3.42;;;;;;;8.85;95.11;100434.31;5125644;27;20068;-67
2021/11/05 03:48:13;;;;;;;5.35;3.38;;;;;;;8.77;96.06;100444.75;5131998;27;20027;-67
2021/11/05 03:50:38;;;;;;;6.10;4.25;;;;;;;8.78;96.82;100454.47;5123486;27;20034;-67
2021/11/05 03:53:04;;;;;;;5.68;4.25;;;;;;;8.71;96.85;100447.91;5130543;27;20500;-67
2021/11/05 03:55:29;;;;;;;4.90;3.80;;;;;;;8.65;97.27;100454.56;5129852;27;20110;-67
2021/11/05 03:57:55;;;;;;;7.05;4.32;;;;;;;8.60;98.04;100454.09;5133685;27;20042;-67
2021/11/05 04:00:21;;;;;;;6.68;3.95;;;;;;;8.58;98.64;100458.69;5129716;27;20019;-67
2021/11/05 04:02:47;;;;;;;5.00;3.95;;;;;;;8.52;98.80;100471.69;5127521;27;20035;-67
2021/11/05 04:05:13;;;;;;;5.53;3.63;;;;;;;8.47;99.01;100482.72;5126877;27;20027;-67
2021/11/05 04:07:40;;;;;;;6.50;3.88;;;;;;;8.45;99.06;100481.97;5130186;27;20077;-67
2021/11/05 04:10:05;;;;;;;7.63;4.03;;;;;;;8.45;99.63;100465.94;5116697;27;20034;-67
2021/11/05 04:12:31;;;;;;;4.32;3.78;;;;;;;8.40;99.73;100460.13;5122124;27;20015;-67
2021/11/05 04:14:56;;;;;;;6.00;3.70;;;;;;;8.38;100.00;100470.06;5130042;27;20049;-69
2021/11/05 04:17:22;;;;;;;4.68;3.80;;;;;;;8.39;100.00;100478.94;5128195;27;20461;-69
2021/11/05 04:19:47;;;;;;;4.40;3.75;;;;;;;8.35;100.00;100480.16;5131357;27;20026;-68
2021/11/05 04:22:13;;;;;;;5.97;3.75;;;;;;;8.32;99.98;100470.53;5120413;27;20023;-68
2021/11/05 04:24:38;;;;;;;4.63;3.85;;;;;;;8.34;99.21;100478.44;5123036;27;20110;-67
2021/11/05 04:27:05;;;;;;;4.20;3.38;;;;;;;8.27;98.41;100475.38;5125140;27;20051;-67
2021/11/05 04:29:31;;;;;;;3.90;3.45;;;;;;;8.28;97.75;100481.56;5129972;27;20023;-67
2021/11/05 04:31:57;;;;;;;4.38;3.58;;;;;;;8.30;97.81;100493.88;5127390;27;20015;-68
2021/11/05 04:34:23;;;;;;;5.78;3.60;;;;;;;8.28;97.52;100498.47;5125800;27;20475;-68
2021/11/05 04:36:48;;;;;;;6.15;3.80;;;;;;;8.23;97.38;100478.41;5132633;27;20087;-68
2021/11/05 04:39:17;;;;;;;7.53;3.72;;;;;;;8.30;98.10;100480.50;5120931;27;20027;-67
2021/11/05 04:41:46;;;;;;;6.93;4.80;;;;;;;8.34;97.12;100481.97;5122986;27;20031;-67
2021/11/05 04:44:11;;;;;;;12.75;6.22;;;;;;;8.33;96.14;100477.59;5114205;28;20032;-68
2021/11/05 04:46:37;;;;;;;10.27;6.55;;;;;;;8.36;95.63;100484.53;5112645;28;20023;-68
2021/11/05 04:49:03;;;;;;;11.88;7.18;;;;;;;8.33;95.61;100487.41;5125342;27;20027;-68
2021/11/05 04:51:29;;;;;;;18.33;9.98;;;;;;;8.36;96.01;100489.88;5129213;27;20023;-68
2021/11/05 04:53:55;;;;;;;26.23;13.35;;;;;;;8.33;96.22;100482.94;5114338;27;20038;-68
2021/11/05 04:56:20;;;;;;;33.00;17.13;;;;;;;8.34;96.33;100486.44;5129123;27;20030;-66
2021/11/05 04:58:45;;;;;;;29.92;15.38;;;;;;;8.38;96.08;100496.78;5122880;27;20031;-68
2021/11/05 05:01:11;;;;;;;31.52;15.63;;;;;;;8.36;95.31;100498.75;5121539;27;20030;-67
2021/11/05 05:03:37;;;;;;;23.85;12.48;;;;;;;8.41;95.15;100509.06;5130824;27;20047;-69
2021/11/05 05:06:02;;;;;;;18.70;10.23;;;;;;;8.37;94.79;100492.41;5129849;27;20058;-68
2021/11/05 05:08:28;;;;;;;13.55;9.00;;;;;;;8.37;94.80;100486.22;5130261;27;20034;-67
2021/11/05 05:10:53;;;;;;;9.75;6.60;;;;;;;8.35;94.96;100472.13;5124097;27;20030;-67
2021/11/05 05:13:19;;;;;;;8.65;6.13;;;;;;;8.35;94.64;100472.13;5127720;27;20479;-68
2021/11/05 05:15:44;;;;;;;10.15;5.50;;;;;;;8.38;94.17;100506.63;5130506;27;20034;-67
2021/11/05 05:18:15;;;;;;;6.30;4.95;;;;;;;8.43;92.97;100507.13;5126742;27;20102;-66
2021/11/05 05:20:41;;;;;;;6.22;4.45;;;;;;;8.43;93.11;100502.66;5124653;27;21441;-68
2021/11/05 05:23:07;;;;;;;5.15;4.43;;;;;;;8.41;93.36;100487.69;5131722;27;20023;-68
2021/11/05 05:25:32;;;;;;;5.93;4.70;;;;;;;8.44;93.36;100498.13;5133476;27;20056;-67
2021/11/05 05:27:58;;;;;;;7.15;5.20;;;;;;;8.41;93.04;100501.03;5129408;27;20121;-67
2021/11/05 05:30:23;;;;;;;8.07;5.18;;;;;;;8.43;93.02;100507.13;5133202;27;20035;-67
2021/11/05 05:32:50;;;;;;;7.78;4.65;;;;;;;8.46;92.45;100529.16;5131799;27;20023;-68
2021/11/05 05:35:17;;;;;;;6.15;4.68;;;;;;;8.42;91.94;100526.81;5124105;27;20025;-67
2021/11/05 05:37:42;;;;;;;6.10;4.47;;;;;;;8.40;92.93;100528.75;5127190;27;20133;-67
2021/11/05 05:40:08;;;;;;;6.00;5.07;;;;;;;8.34;92.89;100500.66;5127629;27;20031;-67
2021/11/05 05:42:35;;;;;;;6.32;4.90;;;;;;;8.40;93.88;100508.22;5129415;27;20050;-67
2021/11/05 05:45:00;;;;;;;6.57;4.70;;;;;;;8.39;93.77;100527.88;5130941;27;20034;-67
2021/11/05 05:47:26;;;;;;;8.20;5.10;;;;;;;8.39;93.06;100529.72;5129664;27;20019;-68
2021/11/05 05:49:52;;;;;;;5.85;5.07;;;;;;;8.40;93.67;100512.72;5131497;27;20027;-71
2021/11/05 05:52:18;;;;;;;6.22;5.10;;;;;;;8.40;94.21;100505.56;5123428;27;20106;-68
2021/11/05 05:54:43;;;;;;;7.07;5.43;;;;;;;8.41;94.78;100498.38;5124353;27;20042;-68
2021/11/05 05:57:09;;;;;;;8.57;5.50;;;;;;;8.42;94.55;100513.47;5126637;27;21538;-69
2021/11/05 05:59:35;;;;;;;6.57;5.00;;;;;;;8.41;93.59;100520.59;5131260;27;20110;-67
2021/11/05 06:02:01;;;;;;;6.63;5.45;;;;;;;8.42;93.31;100533.00;5129436;27;20039;-68
2021/11/05 06:04:26;;;;;;;7.07;4.18;;;;;;;8.40;92.57;100539.44;5126657;27;20521;-69
2021/11/05 06:06:54;;;;;;;9.35;5.45;;;;;;;8.43;93.12;100553.44;5122696;27;20040;-67
2021/11/05 06:09:20;;;;;;;6.75;5.10;;;;;;;8.43;93.22;100557.91;5127335;27;20026;-68
2021/11/05 06:11:45;;;;;;;7.40;5.07;;;;;;;8.46;92.51;100553.19;5126151;27;20638;-68
2021/11/05 06:14:12;;;;;;;9.52;5.82;;;;;;;8.45;92.86;100531.94;5121213;27;20107;-68
2021/11/05 06:16:38;;;;;;;9.77;6.07;;;;;;;8.50;93.08;100541.31;5128345;27;20105;-68
2021/11/05 06:19:03;;;;;;;9.48;6.05;;;;;;;8.56;91.70;100566.72;5130269;27;20019;-68
2021/11/05 06:21:29;;;;;;;10.02;6.55;;;;;;;8.71;89.27;100581.59;5131243;27;20031;-68
2021/11/05 06:23:54;;;;;;;9.05;6.30;;;;;;;8.65;89.64;100566.84;5130545;28;20027;-68
2021/11/05 06:26:20;;;;;;;10.45;6.82;;;;;;;8.63;90.21;100563.47;5130827;27;20027;-68
2021/11/05 06:28:46;;;;;;;9.10;5.57;;;;;;;8.61;90.99;100553.88;5131242;27;20436;-67
2021/11/05 06:31:11;;;;;;;8.55;5.60;;;;;;;8.60;90.72;100557.47;5132296;27;20522;-68
2021/11/05 06:33:37;;;;;;;7.28;4.97;;;;;;;8.60;91.09;100566.38;5128160;28;20076;-67
2021/11/05 06:36:03;;;;;;;6.18;4.70;;;;;;;8.62;90.59;100560.91;5129602;27;20783;-68
2021/11/05 06:38:28;;;;;;;6.28;5.07;;;;;;;8.63;90.24;100567.94;5130228;27;20027;-68
2021/11/05 06:40:54;;;;;;;9.35;5.20;;;;;;;8.65;89.53;100566.84;5133206;27;20079;-68
2021/11/05 06:43:21;;;;;;;8.43;5.28;;;;;;;8.70;89.04;100567.38;5132277;27;20075;-67
2021/11/05 06:45:46;;;;;;;10.57;4.90;;;;;;;8.71;89.31;100576.25;5130181;27;20027;-67
2021/11/05 06:48:12;;;;;;;6.70;4.65;;;;;;;8.72;89.30;100580.63;5132295;27;20034;-67
2021/11/05 06:50:40;;;;;;;6.75;4.97;;;;;;;8.73;89.65;100593.88;5133716;27;20055;-68
2021/11/05 06:53:05;;;;;;;7.13;5.32;;;;;;;8.75;89.12;100604.47;5135326;27;20019;-67
2021/11/05 06:55:31;;;;;;;8.18;5.65;;;;;;;8.81;88.47;100618.19;5119242;27;20031;-67
2021/11/05 06:57:56;;;;;;;7.97;5.80;;;;;;;8.90;88.21;100635.41;5118710;27;20035;-68
2021/11/05 07:00:22;;;;;;;7.80;4.85;;;;;;;8.85;88.14;100614.34;5134773;27;20019;-67
2021/11/05 07:02:47;;;;;;;9.45;5.57;;;;;;;8.96;87.81;100633.09;5136239;27;20031;-67
2021/11/05 07:05:15;;;;;;;5.88;4.93;;;;;;;9.05;87.40;100631.53;5118197;27;20047;-67
2021/11/05 07:07:41;;;;;;;5.85;4.88;;;;;;;9.05;86.47;100624.38;5127144;27;20113;-68
2021/11/05 07:10:08;;;;;;;7.28;4.88;;;;;;;9.12;86.48;100622.94;5135479;27;20105;-68
2021/11/05 07:12:33;;;;;;;7.00;5.45;;;;;;;9.14;86.33;100622.81;5134877;27;20039;-68
2021/11/05 07:15:00;;;;;;;6.97;4.93;;;;;;;9.15;85.48;100620.03;5136034;27;20023;-68
2021/11/05 07:17:26;;;;;;;8.48;4.45;;;;;;;9.25;84.29;100630.84;5126891;27;20422;-68
2021/11/05 07:19:51;;;;;;;6.47;5.15;;;;;;;9.26;84.81;100629.91;5130140;27;20023;-67
2021/11/05 07:22:17;;;;;;;10.13;4.85;;;;;;;9.26;84.80;100630.72;5135871;27;20027;-67
2021/11/05 07:24:44;;;;;;;5.40;4.45;;;;;;;9.31;83.88;100613.50;5135473;27;20392;-68
2021/11/05 07:27:11;;;;;;;6.22;5.10;;;;;;;9.39;83.71;100608.38;5129895;27;20027;-68
2021/11/05 07:29:37;;;;;;;5.63;4.82;;;;;;;9.45;82.73;100622.16;5121555;27;20095;-68
2021/11/05 07:32:07;;;;;;;5.60;4.63;;;;;;;9.49;83.42;100634.31;5115740;27;20055;-68
2021/11/05 07:34:32;;;;;;;6.63;4.75;;;;;;;9.45;82.63;100638.22;5135503;27;20027;-67
2021/11/05 07:37:00;;;;;;;6.10;4.80;;;;;;;9.56;83.37;100648.06;5130105;27;20091;-68
2021/11/05 07:39:26;;;;;;;5.25;4.47;;;;;;;9.58;83.34;100636.28;5135282;27;20027;-67
2021/11/05 07:41:52;;;;;;;5.60;4.50;;;;;;;9.66;82.68;100639.19;5135777;27;20031;-67
2021/11/05 07:44:17;;;;;;;6.10;4.88;;;;;;;9.76;82.56;100650.00;5131746;27;20019;-68
2021/11/05 07:46:45;;;;;;;9.48;4.72;;;;;;;9.82;81.87;100645.03;5132406;27;20467;-69
2021/11/05 07:49:10;;;;;;;5.25;4.43;;;;;;;9.87;81.37;100656.22;5135202;27;20030;-68
2021/11/05 07:51:36;;;;;;;6.00;5.10;;;;;;;9.90;81.33;100660.50;5132444;27;20027;-68
2021/11/05 07:54:02;;;;;;;5.13;4.18;;;;;;;9.97;81.02;100664.41;5135207;27;20601;-68
2021/11/05 07:56:27;;;;;;;5.07;4.38;;;;;;;10.01;80.31;100664.03;5130541;27;20034;-68
2021/11/05 07:58:53;;;;;;;5.95;4.07;;;;;;;10.06;80.00;100663.66;5114620;28;20032;-68
2021/11/05 08:01:18;;;;;;;5.13;3.90;;;;;;;10.08;79.99;100667.09;5117715;27;20495;-68
2021/11/05 08:03:44;;;;;;;6.15;3.83;;;;;;;10.08;80.35;100678.69;5126777;27;20364;-68
2021/11/05 08:06:10;;;;;;;5.07;4.32;;;;;;;10.12;80.18;100676.63;5128110;27;20115;-67
2021/11/05 08:08:35;;;;;;;5.22;4.45;;;;;;;10.13;80.56;100675.63;5129370;27;20095;-67
2021/11/05 08:11:01;;;;;;;4.75;3.60;;;;;;;10.17;80.49;100683.31;5132575;27;20031;-68
2021/11/05 08:13:26;;;;;;;4.57;4.00;;;;;;;10.18;80.32;100673.41;5134752;27;20042;-67
2021/11/05 08:15:52;;;;;;;6.47;4.00;;;;;;;10.28;78.99;100664.50;5125397;27;20131;-67
2021/11/05 08:18:17;;;;;;;7.43;4.13;;;;;;;10.38;80.12;100670.81;5115879;27;20062;-67
2021/11/05 08:20:43;;;;;;;6.68;4.15;;;;;;;10.44;80.01;100675.69;5131048;27;20170;-69
2021/11/05 08:23:09;;;;;;;6.53;3.67;;;;;;;10.48;79.66;100674.47;5132818;27;20841;-68
2021/11/05 08:25:35;;;;;;;4.72;4.07;;;;;;;10.50;78.09;100674.34;5131795;27;20027;-68
2021/11/05 08:28:00;;;;;;;6.30;3.78;;;;;;;10.54;77.93;100665.91;5132913;27;20049;-69
2021/11/05 08:30:27;;;;;;;5.00;3.92;;;;;;;10.54;77.82;100675.78;5134139;27;20484;-67
2021/11/05 08:32:56;;;;;;;5.25;3.80;;;;;;;10.59;77.42;100681.63;5124761;27;20021;-68
2021/11/05 08:35:24;;;;;;;7.25;3.72;;;;;;;10.65;76.21;100697.22;5127549;27;20034;-68
2021/11/05 08:37:51;;;;;;;4.47;2.83;;;;;;;10.67;75.91;100692.56;5130873;27;20031;-67
2021/11/05 08:40:16;;;;;;;4.72;3.28;;;;;;;10.69;76.27;100698.69;5133007;27;20171;-66
2021/11/05 08:42:42;;;;;;;3.55;3.10;;;;;;;10.68;76.93;100711.22;5131676;27;20023;-67
2021/11/05 08:45:08;;;;;;;3.13;2.83;;;;;;;10.67;76.94;100732.81;5134197;27;20098;-68
2021/11/05 08:47:36;;;;;;;3.13;2.83;;;;;;;10.69;77.03;100750.50;5125940;27;20042;-67
2021/11/05 08:50:10;;;;;;;4.15;2.17;;;;;;;10.70;76.45;100765.63;5116355;27;20092;-67
2021/11/05 08:52:36;;;;;;;3.50;3.10;;;;;;;10.67;76.59;100760.50;5128508;27;20158;-67
2021/11/05 08:55:05;;;;;;;3.70;2.80;;;;;;;10.72;75.95;100771.72;5132540;27;20060;-67
2021/11/05 08:57:33;;;;;;;4.43;2.90;;;;;;;10.80;74.35;100768.41;5131338;27;20505;-67
2021/11/05 08:59:59;;;;;;;3.97;2.83;;;;;;;10.76;74.27;100766.94;5129261;27;20047;-67
2021/11/05 09:02:27;;;;;;;5.22;3.10;;;;;;;10.79;74.74;100767.56;5133237;27;20031;-68
2021/11/05 09:04:52;;;;;;;7.63;3.83;;;;;;;10.79;75.08;100767.56;5133576;27;20058;-67
2021/11/05 09:07:18;;;;;;;8.63;3.83;;;;;;;10.76;75.65;100761.56;5130840;27;20034;-68
2021/11/05 09:09:43;;;;;;;5.80;3.42;;;;;;;10.79;75.59;100770.25;5131806;27;20080;-68
2021/11/05 09:12:09;;;;;;;4.53;4.00;;;;;;;10.82;76.28;100769.13;5132833;27;20059;-68
2021/11/05 09:14:35;;;;;;;4.82;3.88;;;;;;;10.85;75.83;100764.38;5133535;27;20415;-67
2021/11/05 09:17:02;;;;;;;5.70;4.47;;;;;;;10.88;75.77;100768.63;5130868;27;20263;-67
2021/11/05 09:19:28;;;;;;;10.35;4.60;;;;;;;10.90;75.19;100778.25;5129997;27;20031;-67
2021/11/05 09:21:53;;;;;;;6.70;4.60;;;;;;;10.90;74.96;100767.53;5129294;27;20391;-67
2021/11/05 09:24:19;;;;;;;6.32;3.70;;;;;;;10.92;75.07;100759.34;5132968;27;20042;-69
2021/11/05 09:26:44;;;;;;;4.22;3.72;;;;;;;10.97;74.74;100757.97;5129352;27;20034;-68
2021/11/05 09:29:10;;;;;;;4.80;4.25;;;;;;;11.01;74.24;100761.28;5112889;28;20480;-67
2021/11/05 09:31:36;;;;;;;4.70;3.83;;;;;;;11.04;74.01;100767.25;5126687;27;20101;-68
2021/11/05 09:34:01;;;;;;;5.28;4.18;;;;;;;11.03;73.85;100768.22;5133405;27;20370;-68
2021/11/05 09:36:27;;;;;;;5.03;4.40;;;;;;;11.18;72.49;100761.59;5129531;27;20030;-68
2021/11/05 09:38:52;;;;;;;5.45;4.30;;;;;;;11.13;73.43;100771.00;5133336;27;20027;-68
2021/11/05 09:41:18;;;;;;;5.55;3.70;;;;;;;11.09;73.58;100775.75;5131079;27;20050;-68
2021/11/05 09:43:44;;;;;;;4.90;4.40;;;;;;;11.11;74.05;100776.50;5129521;27;20035;-67
2021/11/05 09:46:10;;;;;;;7.18;4.70;;;;;;;11.11;74.43;100775.63;5122524;27;20135;-67
2021/11/05 09:48:38;;;;;;;6.07;3.92;;;;;;;11.13;74.25;100774.53;5133000;27;20027;-67
2021/11/05 09:51:09;;;;;;;6.10;4.93;;;;;;;11.19;73.87;100783.94;5131319;27;20203;-67
2021/11/05 09:53:38;;;;;;;6.03;4.47;;;;;;;11.18;73.92;100766.97;5118503;27;20042;-68
2021/11/05 09:56:08;;;;;;;7.18;5.10;;;;;;;11.19;73.99;100768.66;5129609;27;20092;-68
2021/11/05 09:58:35;;;;;;;5.93;4.50;;;;;;;11.24;71.71;100779.88;5131655;27;20035;-67
2021/11/05 10:01:00;;;;;;;5.47;4.43;;;;;;;11.28;72.38;100788.50;5131559;27;20466;-67
2021/11/05 10:03:27;;;;;;;7.68;4.38;;;;;;;11.24;72.52;100777.19;5131927;27;20051;-67
2021/11/05 10:05:54;;;;;;;7.15;4.65;;;;;;;11.27;72.58;100781.44;5130938;27;20098;-68
2021/11/05 10:08:31;;;;;;;6.15;4.18;;;;;;;11.28;72.05;100762.53;5130643;27;20051;-67
2021/11/05 10:11:18;;;;;;;5.50;4.38;;;;;;;11.34;71.07;100774.56;5124890;27;20467;-67
2021/11/05 10:13:44;;;;;;;7.65;4.55;;;;;;;11.32;70.79;100779.25;5125904;27;20494;-67
2021/11/05 10:16:14;;;;;;;7.00;5.07;;;;;;;11.36;71.20;100772.63;5128165;27;20027;-67
2021/11/05 10:18:56;;;;;;;5.53;4.15;;;;;;;11.34;69.33;100767.38;5118049;27;20558;-67
2021/11/05 10:21:23;;;;;;;8.15;4.15;;;;;;;11.33;68.91;100776.44;5114947;28;20027;-67
2021/11/05 10:23:48;;;;;;;5.95;3.95;;;;;;;11.33;67.78;100768.38;5110913;28;20403;-68
2021/11/05 10:26:32;;;;;;;6.15;3.97;;;;;;;11.35;67.46;100765.53;5120031;28;20030;-68
2021/11/05 10:28:59;;;;;;;5.63;3.45;;;;;;;11.37;67.83;100775.19;5130292;27;20035;-67
2021/11/05 10:31:27;;;;;;;4.63;3.20;;;;;;;11.35;67.00;100768.22;5125131;27;20024;-67
2021/11/05 10:33:52;;;;;;;5.07;3.40;;;;;;;11.38;66.63;100774.19;5130214;27;20023;-68
2021/11/05 10:36:20;;;;;;;5.25;3.10;;;;;;;11.43;66.55;100781.88;5131425;27;20033;-67
2021/11/05 10:38:57;;;;;;;4.75;3.58;;;;;;;11.47;67.27;100783.31;5131451;27;20541;-68
2021/11/05 10:41:25;;;;;;;7.93;4.18;;;;;;;11.47;67.19;100775.25;5129424;27;20034;-69
2021/11/05 10:43:54;;;;;;;5.63;4.05;;;;;;;11.47;66.69;100773.44;5124663;28;20098;-68
2021/11/05 10:46:32;;;;;;;4.40;3.95;;;;;;;11.48;67.10;100772.44;5131059;27;20087;-67
2021/11/05 10:49:07;;;;;;;5.22;4.07;;;;;;;11.50;66.85;100778.53;5128190;27;20472;-67
2021/11/05 10:51:34;;;;;;;6.55;4.22;;;;;;;11.54;67.33;100782.66;5119535;27;20031;-67
2021/11/05 10:54:01;;;;;;;4.00;3.45;;;;;;;11.62;66.52;100791.94;5127897;27;20039;-67
2021/11/05 10:56:30;;;;;;;6.90;2.85;;;;;;;11.64;67.48;100795.38;5128072;27;20368;-68
2021/11/05 10:58:57;;;;;;;3.70;3.00;;;;;;;11.64;67.60;100790.81;5128902;27;20398;-67
2021/11/05 11:01:25;;;;;;;4.15;3.45;;;;;;;11.67;66.52;100795.94;5132023;27;20023;-67
2021/11/05 11:03:54;;;;;;;5.45;3.75;;;;;;;11.78;65.61;100803.09;5130630;27;20058;-67
2021/11/05 11:06:28;;;;;;;4.25;3.15;;;;;;;11.77;66.13;100799.53;5131622;27;20508;-68
2021/11/05 11:08:56;;;;;;;4.05;2.88;;;;;;;11.76;65.64;100794.31;5131712;27;20023;-66
2021/11/05 11:11:32;;;;;;;7.30;3.92;;;;;;;11.93;65.15;100801.78;5131921;28;20035;-69
2021/11/05 11:14:00;;;;;;;6.07;4.50;;;;;;;11.91;65.33;100820.75;5130965;27;20037;-69
2021/11/05 11:16:27;;;;;;;7.28;4.70;;;;;;;11.97;65.79;100808.59;5130250;27;20007;-67
2021/11/05 11:18:55;;;;;;;6.85;4.85;;;;;;;12.07;65.01;100802.31;5125346;27;20042;-67
2021/11/05 11:21:24;;;;;;;6.75;4.97;;;;;;;12.04;65.49;100789.13;5122973;28;20067;-68